createdAt,value
2019-04-07T00:00:35.953Z,12.71
2019-04-07T00:01:35.694Z,12.70
2019-04-07T00:02:35.888Z,12.70
2019-04-07T00:03:35.673Z,12.68
2019-04-07T00:04:36.177Z,12.67
2019-04-07T00:05:36.247Z,12.66
2019-04-07T00:06:36.143Z,12.67
2019-04-07T00:07:35.630Z,12.66
2019-04-07T00:08:35.631Z,12.66
2019-04-07T00:09:35.627Z,12.65
2019-04-07T00:10:35.631Z,12.66
2019-04-07T00:11:35.728Z,12.66
2019-04-07T00:12:35.850Z,12.66
2019-04-07T00:13:35.565Z,12.65
2019-04-07T00:14:36.035Z,12.66
2019-04-07T00:15:35.553Z,12.64
2019-04-07T00:16:35.537Z,12.67
2019-04-07T00:17:36.139Z,12.67
2019-04-07T00:18:35.760Z,12.66
2019-04-07T00:19:35.506Z,12.67
2019-04-07T00:20:35.516Z,12.67
2019-04-07T00:21:35.503Z,12.68
2019-04-07T00:22:35.486Z,12.68
2019-04-07T00:23:35.763Z,12.66
2019-04-07T00:24:35.451Z,12.68
2019-04-07T00:25:35.442Z,12.68
2019-04-07T00:26:35.853Z,12.67
2019-04-07T00:27:35.426Z,12.68
2019-04-07T00:28:35.428Z,12.68
2019-04-07T00:29:35.533Z,12.68
2019-04-07T00:30:35.385Z,12.68
2019-04-07T00:31:35.378Z,12.69
2019-04-07T00:32:35.387Z,12.68
2019-04-07T00:33:35.352Z,12.68
2019-04-07T00:34:35.877Z,12.67
2019-04-07T00:35:35.331Z,12.67
2019-04-07T00:36:35.320Z,12.66
2019-04-07T00:37:35.308Z,12.64
2019-04-07T00:38:35.900Z,12.63
2019-04-07T00:39:35.523Z,12.61
2019-04-07T00:40:35.785Z,12.60
2019-04-07T00:41:35.419Z,12.57
2019-04-07T00:42:35.343Z,12.57
2019-04-07T00:43:35.247Z,12.54
2019-04-07T00:44:35.333Z,12.51
2019-04-07T00:45:35.403Z,12.49
2019-04-07T00:46:35.536Z,12.46
2019-04-07T00:47:35.203Z,12.45
2019-04-07T00:48:35.197Z,12.42
2019-04-07T00:49:35.639Z,12.41
2019-04-07T00:50:35.788Z,12.38
2019-04-07T00:51:35.377Z,12.35
2019-04-07T00:52:35.150Z,12.33
2019-04-07T00:53:35.317Z,12.32
2019-04-07T00:54:35.127Z,12.30
2019-04-07T00:55:35.116Z,12.27
2019-04-07T00:56:35.787Z,12.25
2019-04-07T00:57:35.390Z,12.22
2019-04-07T00:58:35.087Z,12.19
2019-04-07T00:59:35.216Z,12.20
2019-04-07T01:00:35.696Z,12.17
2019-04-07T01:01:35.108Z,12.14
2019-04-07T01:02:35.064Z,12.13
2019-04-07T01:03:35.032Z,12.12
2019-04-07T01:04:35.257Z,12.08
2019-04-07T01:05:38.488Z,12.07
2019-04-07T01:06:35.997Z,12.07
2019-04-07T01:07:35.497Z,12.04
2019-04-07T01:08:34.990Z,12.02
2019-04-07T01:09:35.289Z,12.00
2019-04-07T01:10:35.420Z,11.97
2019-04-07T01:11:35.417Z,11.97
2019-04-07T01:12:34.931Z,11.94
2019-04-07T01:13:35.255Z,11.91
2019-04-07T01:14:34.939Z,11.90
2019-04-07T01:15:35.241Z,11.89
2019-04-07T01:16:35.260Z,11.87
2019-04-07T01:17:34.876Z,11.86
2019-04-07T01:18:35.499Z,11.84
2019-04-07T01:19:35.348Z,11.82
2019-04-07T01:20:34.853Z,11.82
2019-04-07T01:21:34.834Z,11.81
2019-04-07T01:22:34.822Z,11.80
2019-04-07T01:23:34.844Z,11.78
2019-04-07T01:24:35.233Z,11.76
2019-04-07T01:25:34.789Z,11.74
2019-04-07T01:26:34.791Z,11.72
2019-04-07T01:27:34.769Z,11.71
2019-04-07T01:28:35.353Z,11.69
2019-04-07T01:29:35.393Z,11.67
2019-04-07T01:30:34.957Z,11.66
2019-04-07T01:31:35.227Z,11.65
2019-04-07T01:32:34.726Z,11.64
2019-04-07T01:33:34.702Z,11.60
2019-04-07T01:34:35.040Z,11.61
2019-04-07T01:35:44.956Z,11.60
2019-04-07T01:36:35.669Z,11.57
2019-04-07T01:37:35.248Z,11.55
2019-04-07T01:38:34.660Z,11.54
2019-04-07T01:39:34.973Z,11.52
2019-04-07T01:40:35.192Z,11.50
2019-04-07T01:41:34.904Z,11.49
2019-04-07T01:42:34.605Z,11.45
2019-04-07T01:43:34.594Z,11.45
2019-04-07T01:44:34.593Z,11.43
2019-04-07T01:45:34.572Z,11.40
2019-04-07T01:46:35.373Z,11.38
2019-04-07T01:47:34.551Z,11.37
2019-04-07T01:48:34.658Z,11.36
2019-04-07T01:49:34.808Z,11.37
2019-04-07T01:50:34.532Z,11.36
2019-04-07T01:51:34.925Z,11.34
2019-04-07T01:52:34.845Z,11.35
2019-04-07T01:53:34.486Z,11.34
2019-04-07T01:54:34.557Z,11.35
2019-04-07T01:55:34.505Z,11.33
2019-04-07T01:56:34.466Z,11.31
2019-04-07T01:57:34.444Z,11.30
2019-04-07T01:58:34.832Z,11.30
2019-04-07T01:59:34.450Z,11.29
2019-04-07T02:00:34.412Z,11.25
2019-04-07T02:01:34.403Z,11.25
2019-04-07T02:02:34.401Z,11.22
2019-04-07T02:03:34.381Z,11.21
2019-04-07T02:04:34.728Z,11.20
2019-04-07T02:05:34.359Z,11.18
2019-04-07T02:06:34.896Z,11.17
2019-04-07T02:07:34.737Z,11.15
2019-04-07T02:08:34.340Z,11.13
2019-04-07T02:09:34.317Z,11.13
2019-04-07T02:10:34.306Z,11.13
2019-04-07T02:11:35.049Z,11.11
2019-04-07T02:12:35.062Z,11.10
2019-04-07T02:13:35.030Z,11.08
2019-04-07T02:14:34.504Z,11.07
2019-04-07T02:15:34.407Z,11.07
2019-04-07T02:16:34.460Z,11.06
2019-04-07T02:17:34.231Z,11.05
2019-04-07T02:18:34.282Z,11.05
2019-04-07T02:19:34.470Z,11.03
2019-04-07T02:20:34.500Z,11.00
2019-04-07T02:21:34.905Z,11.01
2019-04-07T02:22:34.393Z,11.00
2019-04-07T02:23:34.173Z,10.98
2019-04-07T02:24:34.448Z,10.97
2019-04-07T02:25:34.146Z,10.96
2019-04-07T02:26:34.363Z,10.96
2019-04-07T02:27:34.833Z,10.92
2019-04-07T02:28:34.151Z,10.92
2019-04-07T02:29:34.659Z,10.90
2019-04-07T02:30:35.181Z,10.89
2019-04-07T02:31:34.082Z,10.87
2019-04-07T02:32:34.455Z,10.86
2019-04-07T02:33:34.800Z,10.84
2019-04-07T02:34:34.170Z,10.82
2019-04-07T02:35:34.554Z,10.80
2019-04-07T02:36:34.039Z,10.78
2019-04-07T02:37:34.018Z,10.78
2019-04-07T02:38:34.559Z,10.77
2019-04-07T02:39:34.692Z,10.74
2019-04-07T02:40:34.296Z,10.73
2019-04-07T02:41:34.533Z,10.73
2019-04-07T02:42:34.308Z,10.71
2019-04-07T02:43:34.145Z,10.71
2019-04-07T02:44:33.952Z,10.69
2019-04-07T02:45:34.593Z,10.68
2019-04-07T02:46:33.917Z,10.68
2019-04-07T02:47:33.909Z,10.67
2019-04-07T02:48:34.020Z,10.65
2019-04-07T02:49:33.967Z,10.66
2019-04-07T02:50:34.883Z,10.65
2019-04-07T02:51:33.944Z,10.64
2019-04-07T02:52:33.857Z,10.63
2019-04-07T02:53:34.699Z,10.62
2019-04-07T02:54:34.565Z,10.61
2019-04-07T02:55:33.830Z,10.60
2019-04-07T02:56:33.957Z,10.62
2019-04-07T02:57:33.935Z,10.59
2019-04-07T02:58:33.788Z,10.59
2019-04-07T02:59:33.777Z,10.59
2019-04-07T03:00:33.794Z,10.57
2019-04-07T03:01:33.755Z,10.58
2019-04-07T03:02:34.566Z,10.57
2019-04-07T03:03:34.344Z,10.55
2019-04-07T03:04:33.729Z,10.54
2019-04-07T03:05:33.726Z,10.55
2019-04-07T03:06:43.209Z,10.55
2019-04-07T03:07:35.630Z,10.54
2019-04-07T03:08:33.677Z,10.53
2019-04-07T03:09:34.786Z,10.53
2019-04-07T03:10:33.663Z,10.52
2019-04-07T03:11:33.664Z,10.51
2019-04-07T03:12:33.636Z,10.50
2019-04-07T03:13:33.636Z,10.48
2019-04-07T03:14:34.400Z,10.47
2019-04-07T03:15:34.332Z,10.46
2019-04-07T03:16:33.594Z,10.44
2019-04-07T03:17:33.581Z,10.43
2019-04-07T03:18:34.344Z,10.41
2019-04-07T03:19:33.582Z,10.40
2019-04-07T03:20:33.545Z,10.39
2019-04-07T03:21:33.538Z,10.38
2019-04-07T03:22:33.524Z,10.36
2019-04-07T03:23:33.517Z,10.36
2019-04-07T03:24:33.686Z,10.34
2019-04-07T03:25:34.154Z,10.33
2019-04-07T03:26:33.680Z,10.31
2019-04-07T03:27:33.851Z,10.32
2019-04-07T03:28:34.542Z,10.31
2019-04-07T03:29:33.448Z,10.31
2019-04-07T03:30:35.332Z,10.30
2019-04-07T03:31:33.710Z,10.30
2019-04-07T03:32:35.585Z,10.30
2019-04-07T03:33:37.162Z,10.28
2019-04-07T03:34:36.291Z,10.28
2019-04-07T03:35:34.762Z,10.27
2019-04-07T03:37:01.498Z,10.28
2019-04-07T03:37:43.012Z,10.26
2019-04-07T03:38:34.348Z,10.26
2019-04-07T03:39:33.419Z,10.25
2019-04-07T03:40:33.635Z,10.25
2019-04-07T03:41:33.378Z,10.24
2019-04-07T03:42:34.316Z,10.23
2019-04-07T03:43:33.308Z,10.24
2019-04-07T03:44:33.291Z,10.22
2019-04-07T03:45:33.872Z,10.20
2019-04-07T03:46:33.264Z,10.20
2019-04-07T03:47:33.503Z,10.20
2019-04-07T03:48:33.255Z,10.20
2019-04-07T03:49:33.536Z,10.20
2019-04-07T03:50:33.361Z,10.19
2019-04-07T03:51:33.495Z,10.19
2019-04-07T03:52:33.874Z,10.16
2019-04-07T03:53:33.683Z,10.15
2019-04-07T03:54:33.550Z,10.13
2019-04-07T03:55:33.431Z,10.11
2019-04-07T03:56:34.274Z,10.12
2019-04-07T03:57:33.156Z,10.10
2019-04-07T03:58:33.134Z,10.09
2019-04-07T03:59:33.346Z,10.08
2019-04-07T04:00:33.890Z,10.08
2019-04-07T04:01:33.564Z,10.08
2019-04-07T04:02:33.318Z,10.07
2019-04-07T04:03:33.098Z,10.05
2019-04-07T04:04:34.155Z,10.06
2019-04-07T04:05:34.090Z,10.05
2019-04-07T04:06:33.049Z,10.04
2019-04-07T04:07:36.527Z,10.04
2019-04-07T04:08:33.028Z,10.03
2019-04-07T04:09:33.020Z,10.04
2019-04-07T04:10:33.007Z,10.02
2019-04-07T04:11:32.996Z,10.02
2019-04-07T04:12:32.997Z,10.01
2019-04-07T04:13:32.985Z,10.00
2019-04-07T04:14:33.425Z,10.02
2019-04-07T04:15:33.010Z,9.98
2019-04-07T04:16:34.028Z,9.97
2019-04-07T04:17:32.932Z,9.96
2019-04-07T04:18:32.921Z,9.96
2019-04-07T04:19:33.655Z,9.94
2019-04-07T04:20:32.900Z,9.93
2019-04-07T04:21:33.170Z,9.91
2019-04-07T04:22:32.883Z,9.89
2019-04-07T04:23:33.676Z,9.89
2019-04-07T04:24:33.615Z,9.88
2019-04-07T04:25:32.856Z,9.88
2019-04-07T04:26:32.840Z,9.86
2019-04-07T04:27:33.312Z,9.85
2019-04-07T04:28:32.868Z,9.84
2019-04-07T04:29:33.240Z,9.84
2019-04-07T04:30:32.794Z,9.83
2019-04-07T04:31:33.722Z,9.82
2019-04-07T04:32:32.956Z,9.81
2019-04-07T04:33:33.086Z,9.80
2019-04-07T04:34:32.999Z,9.79
2019-04-07T04:35:32.739Z,9.79
2019-04-07T04:36:33.483Z,9.79
2019-04-07T04:37:39.864Z,9.79
2019-04-07T04:38:33.742Z,9.78
2019-04-07T04:39:33.494Z,9.78
2019-04-07T04:40:32.686Z,9.76
2019-04-07T04:41:33.011Z,9.76
2019-04-07T04:42:33.750Z,9.75
2019-04-07T04:43:32.664Z,9.76
2019-04-07T04:44:32.756Z,9.76
2019-04-07T04:45:32.641Z,9.77
2019-04-07T04:46:32.793Z,9.76
2019-04-07T04:47:32.869Z,9.76
2019-04-07T04:48:32.601Z,9.75
2019-04-07T04:49:32.604Z,9.75
2019-04-07T04:50:32.580Z,9.76
2019-04-07T04:51:37.860Z,9.75
2019-04-07T04:52:33.557Z,9.76
2019-04-07T04:53:32.567Z,9.75
2019-04-07T04:54:33.401Z,9.76
2019-04-07T04:55:32.542Z,9.77
2019-04-07T04:56:32.803Z,9.77
2019-04-07T04:57:32.508Z,9.76
2019-04-07T04:58:32.502Z,9.77
2019-04-07T04:59:33.292Z,9.78
2019-04-07T05:00:32.477Z,9.79
2019-04-07T05:01:33.077Z,9.81
2019-04-07T05:02:32.660Z,9.81
2019-04-07T05:03:32.853Z,9.83
2019-04-07T05:04:32.798Z,9.82
2019-04-07T05:05:32.421Z,9.84
2019-04-07T05:06:33.214Z,9.85
2019-04-07T05:07:32.449Z,9.88
2019-04-07T05:08:32.444Z,9.88
2019-04-07T05:09:42.154Z,9.90
2019-04-07T05:10:33.366Z,9.91
2019-04-07T05:11:32.789Z,9.91
2019-04-07T05:12:32.346Z,9.92
2019-04-07T05:13:32.972Z,9.95
2019-04-07T05:14:32.325Z,9.96
2019-04-07T05:15:32.658Z,9.97
2019-04-07T05:16:32.304Z,9.98
2019-04-07T05:17:32.379Z,10.01
2019-04-07T05:18:32.413Z,10.03
2019-04-07T05:19:32.343Z,10.06
2019-04-07T05:20:32.268Z,10.09
2019-04-07T05:21:32.252Z,10.13
2019-04-07T05:22:32.240Z,10.17
2019-04-07T05:23:32.634Z,10.19
2019-04-07T05:24:32.256Z,10.25
2019-04-07T05:25:32.740Z,10.29
2019-04-07T05:26:32.199Z,10.35
2019-04-07T05:27:32.725Z,10.39
2019-04-07T05:28:34.985Z,10.45
2019-04-07T05:29:32.442Z,10.52
2019-04-07T05:30:32.543Z,10.61
2019-04-07T05:31:32.154Z,10.73
2019-04-07T05:32:32.191Z,10.83
2019-04-07T05:33:32.121Z,10.96
2019-04-07T05:34:32.229Z,11.12
2019-04-07T05:35:32.100Z,11.29
2019-04-07T05:36:32.499Z,11.47
2019-04-07T05:37:32.090Z,11.66
2019-04-07T05:38:32.069Z,11.87
2019-04-07T05:39:32.058Z,12.10
2019-04-07T05:40:32.045Z,12.36
2019-04-07T05:41:32.607Z,12.62
2019-04-07T05:42:32.696Z,12.90
2019-04-07T05:43:32.713Z,13.17
2019-04-07T05:44:32.233Z,13.45
2019-04-07T05:45:33.788Z,13.73
2019-04-07T05:46:32.337Z,14.02
2019-04-07T05:47:31.970Z,14.33
2019-04-07T05:48:32.623Z,14.62
2019-04-07T05:49:32.525Z,14.91
2019-04-07T05:50:31.937Z,15.20
2019-04-07T05:51:32.698Z,15.50
2019-04-07T05:52:33.460Z,15.77
2019-04-07T05:53:32.381Z,16.03
2019-04-07T05:54:31.906Z,16.28
2019-04-07T05:55:32.045Z,16.54
2019-04-07T05:56:31.994Z,16.75
2019-04-07T05:57:34.810Z,16.94
2019-04-07T05:58:32.257Z,17.20
2019-04-07T05:59:31.990Z,17.43
2019-04-07T06:00:31.838Z,17.59
2019-04-07T06:01:32.195Z,17.84
2019-04-07T06:02:33.985Z,18.12
2019-04-07T06:03:31.835Z,18.31
2019-04-07T06:04:31.788Z,18.45
2019-04-07T06:05:31.790Z,18.70
2019-04-07T06:06:31.764Z,19.01
2019-04-07T06:07:34.946Z,19.26
2019-04-07T06:08:37.161Z,19.49
2019-04-07T06:09:33.788Z,19.70
2019-04-07T06:10:31.720Z,19.81
2019-04-07T06:11:34.507Z,19.84
2019-04-07T06:12:31.706Z,19.89
2019-04-07T06:13:32.836Z,20.14
2019-04-07T06:14:32.328Z,20.51
2019-04-07T06:15:32.414Z,20.86
2019-04-07T06:16:32.193Z,21.18
2019-04-07T06:17:31.779Z,21.50
2019-04-07T06:18:33.895Z,21.80
2019-04-07T06:19:31.635Z,22.11
2019-04-07T06:20:32.280Z,22.39
2019-04-07T06:21:32.342Z,22.68
2019-04-07T06:22:31.591Z,22.98
2019-04-07T06:23:31.579Z,23.28
2019-04-07T06:24:33.975Z,23.56
2019-04-07T06:25:37.844Z,23.84
2019-04-07T06:26:33.069Z,24.12
2019-04-07T06:27:31.542Z,24.39
2019-04-07T06:28:31.643Z,24.67
2019-04-07T06:29:31.694Z,24.92
2019-04-07T06:30:32.995Z,25.18
2019-04-07T06:31:33.029Z,25.43
2019-04-07T06:32:35.210Z,25.67
2019-04-07T06:33:32.060Z,25.90
2019-04-07T06:34:31.576Z,26.11
2019-04-07T06:35:31.499Z,26.33
2019-04-07T06:36:31.998Z,26.53
2019-04-07T06:37:31.798Z,26.74
2019-04-07T06:38:34.970Z,26.94
2019-04-07T06:39:32.416Z,27.14
2019-04-07T06:40:32.184Z,27.34
2019-04-07T06:41:32.911Z,27.51
2019-04-07T06:42:32.405Z,27.70
2019-04-07T06:43:31.380Z,27.87
2019-04-07T06:44:31.353Z,28.04
2019-04-07T06:45:31.625Z,28.24
2019-04-07T06:46:32.018Z,28.42
2019-04-07T06:47:32.900Z,28.61
2019-04-07T06:48:32.055Z,28.79
2019-04-07T06:49:31.654Z,28.95
2019-04-07T06:50:31.286Z,29.13
2019-04-07T06:51:31.275Z,29.31
2019-04-07T06:52:34.692Z,29.47
2019-04-07T06:53:32.666Z,29.66
2019-04-07T06:54:31.924Z,29.85
2019-04-07T06:55:33.004Z,30.02
2019-04-07T06:56:33.426Z,30.18
2019-04-07T06:57:31.209Z,30.34
2019-04-07T06:58:31.199Z,30.53
2019-04-07T06:59:31.782Z,30.71
2019-04-07T07:00:31.185Z,30.89
2019-04-07T07:01:32.212Z,31.07
2019-04-07T07:02:31.905Z,31.25
2019-04-07T07:03:33.525Z,31.42
2019-04-07T07:04:31.217Z,31.59
2019-04-07T07:05:33.584Z,31.79
2019-04-07T07:06:31.714Z,31.98
2019-04-07T07:07:31.414Z,32.17
2019-04-07T07:08:41.753Z,32.33
2019-04-07T07:09:33.290Z,32.50
2019-04-07T07:10:35.575Z,32.67
2019-04-07T07:11:34.348Z,32.85
2019-04-07T07:12:38.063Z,33.03
2019-04-07T07:13:34.794Z,33.20
2019-04-07T07:14:38.415Z,33.39
2019-04-07T07:15:35.384Z,33.54
2019-04-07T07:16:31.771Z,33.69
2019-04-07T07:17:31.172Z,33.84
2019-04-07T07:18:31.430Z,33.97
2019-04-07T07:19:31.569Z,34.09
2019-04-07T07:20:31.229Z,34.23
2019-04-07T07:21:34.003Z,34.35
2019-04-07T07:22:31.937Z,34.48
2019-04-07T07:23:31.116Z,34.65
2019-04-07T07:24:30.921Z,34.79
2019-04-07T07:25:32.224Z,34.84
2019-04-07T07:26:35.115Z,34.92
2019-04-07T07:27:31.667Z,35.01
2019-04-07T07:28:31.557Z,35.07
2019-04-07T07:29:30.907Z,35.12
2019-04-07T07:30:31.531Z,35.19
2019-04-07T07:31:30.853Z,35.27
2019-04-07T07:32:34.973Z,35.37
2019-04-07T07:33:31.819Z,35.50
2019-04-07T07:34:31.633Z,35.61
2019-04-07T07:35:30.798Z,35.62
2019-04-07T07:36:30.788Z,35.61
2019-04-07T07:37:31.013Z,35.56
2019-04-07T07:38:32.499Z,35.52
2019-04-07T07:39:31.546Z,35.47
2019-04-07T07:40:31.053Z,35.39
2019-04-07T07:41:31.208Z,35.36
2019-04-07T07:42:30.725Z,35.30
2019-04-07T07:43:30.726Z,35.25
2019-04-07T07:44:31.267Z,35.17
2019-04-07T07:45:30.765Z,35.11
2019-04-07T07:46:30.683Z,35.05
2019-04-07T07:47:31.361Z,34.95
2019-04-07T07:48:31.385Z,34.87
2019-04-07T07:49:33.515Z,34.81
2019-04-07T07:50:30.643Z,34.77
2019-04-07T07:51:31.369Z,34.79
2019-04-07T07:52:30.904Z,34.80
2019-04-07T07:53:30.708Z,34.77
2019-04-07T07:54:31.412Z,34.74
2019-04-07T07:55:34.110Z,34.75
2019-04-07T07:56:31.702Z,34.72
2019-04-07T07:57:30.571Z,34.69
2019-04-07T07:58:32.763Z,34.61
2019-04-07T07:59:33.536Z,34.49
2019-04-07T08:00:32.068Z,34.39
2019-04-07T08:01:31.074Z,34.28
2019-04-07T08:02:31.156Z,34.18
2019-04-07T08:03:30.498Z,34.14
2019-04-07T08:04:30.531Z,34.16
2019-04-07T08:05:33.380Z,34.24
2019-04-07T08:06:30.555Z,34.34
2019-04-07T08:07:31.206Z,34.43
2019-04-07T08:08:30.444Z,34.48
2019-04-07T08:09:30.664Z,34.50
2019-04-07T08:10:30.422Z,34.51
2019-04-07T08:11:31.569Z,34.50
2019-04-07T08:12:32.363Z,34.48
2019-04-07T08:13:31.159Z,34.55
2019-04-07T08:14:30.406Z,34.68
2019-04-07T08:15:32.203Z,34.83
2019-04-07T08:16:31.508Z,34.97
2019-04-07T08:17:33.139Z,35.05
2019-04-07T08:18:30.833Z,35.13
2019-04-07T08:19:30.834Z,35.16
2019-04-07T08:20:30.660Z,35.13
2019-04-07T08:21:30.308Z,35.09
2019-04-07T08:22:38.866Z,35.08
2019-04-07T08:23:31.290Z,35.08
2019-04-07T08:24:30.454Z,35.10
2019-04-07T08:25:30.286Z,35.15
2019-04-07T08:26:31.714Z,35.27
2019-04-07T08:27:31.963Z,35.40
2019-04-07T08:28:33.667Z,35.53
2019-04-07T08:29:31.226Z,35.64
2019-04-07T08:30:30.666Z,35.71
2019-04-07T08:31:30.428Z,35.78
2019-04-07T08:32:32.270Z,35.82
2019-04-07T08:33:30.421Z,35.91
2019-04-07T08:34:31.546Z,35.96
2019-04-07T08:35:30.845Z,35.99
2019-04-07T08:36:30.233Z,35.99
2019-04-07T08:37:30.783Z,35.99
2019-04-07T08:38:30.119Z,36.03
2019-04-07T08:39:34.077Z,36.10
2019-04-07T08:40:31.107Z,36.12
2019-04-07T08:41:30.086Z,36.05
2019-04-07T08:42:30.319Z,35.98
2019-04-07T08:43:30.744Z,35.94
2019-04-07T08:44:30.876Z,35.90
2019-04-07T08:45:32.408Z,35.88
2019-04-07T08:46:32.039Z,35.84
2019-04-07T08:47:31.246Z,35.85
2019-04-07T08:48:30.695Z,35.87
2019-04-07T08:49:32.336Z,35.80
2019-04-07T08:50:29.988Z,35.75
2019-04-07T08:51:32.384Z,35.70
2019-04-07T08:52:29.976Z,35.62
2019-04-07T08:53:30.571Z,35.50
2019-04-07T08:54:30.610Z,35.43
2019-04-07T08:55:29.977Z,35.35
2019-04-07T08:56:30.944Z,35.30
2019-04-07T08:57:31.142Z,35.27
2019-04-07T08:58:33.337Z,35.20
2019-04-07T08:59:31.398Z,35.10
2019-04-07T09:00:30.023Z,34.95
2019-04-07T09:01:31.436Z,34.80
2019-04-07T09:02:31.068Z,34.70
2019-04-07T09:03:30.312Z,34.62
2019-04-07T09:04:29.848Z,34.49
2019-04-07T09:05:31.225Z,34.35
2019-04-07T09:06:30.350Z,34.22
2019-04-07T09:07:31.031Z,34.10
2019-04-07T09:08:30.571Z,33.99
2019-04-07T09:09:34.093Z,33.84
2019-04-07T09:10:33.304Z,33.71
2019-04-07T09:11:30.403Z,33.57
2019-04-07T09:12:31.344Z,33.42
2019-04-07T09:13:32.345Z,33.29
2019-04-07T09:14:29.745Z,33.14
2019-04-07T09:15:29.753Z,33.04
2019-04-07T09:16:30.224Z,32.97
2019-04-07T09:17:38.124Z,32.90
2019-04-07T09:18:30.797Z,32.84
2019-04-07T09:19:29.915Z,32.78
2019-04-07T09:20:30.253Z,32.66
2019-04-07T09:21:38.687Z,32.57
2019-04-07T09:22:31.603Z,32.49
2019-04-07T09:23:29.629Z,32.39
2019-04-07T09:24:31.363Z,32.25
2019-04-07T09:25:31.862Z,32.14
2019-04-07T09:26:29.596Z,32.10
2019-04-07T09:27:30.051Z,32.03
2019-04-07T09:28:29.840Z,31.93
2019-04-07T09:29:30.360Z,31.82
2019-04-07T09:30:29.758Z,31.70
2019-04-07T09:31:30.338Z,31.57
2019-04-07T09:32:30.236Z,31.44
2019-04-07T09:33:29.803Z,31.35
2019-04-07T09:34:30.211Z,31.28
2019-04-07T09:35:29.811Z,31.24
2019-04-07T09:36:32.206Z,31.17
2019-04-07T09:37:29.476Z,31.11
2019-04-07T09:38:29.492Z,31.08
2019-04-07T09:39:33.975Z,31.04
2019-04-07T09:40:30.455Z,31.06
2019-04-07T09:41:29.772Z,31.08
2019-04-07T09:42:29.464Z,31.10
2019-04-07T09:43:30.624Z,31.11
2019-04-07T09:44:33.992Z,31.14
2019-04-07T09:45:30.389Z,31.17
2019-04-07T09:46:29.975Z,31.13
2019-04-07T09:47:29.367Z,31.13
2019-04-07T09:48:29.358Z,31.14
2019-04-07T09:49:29.939Z,31.13
2019-04-07T09:50:29.490Z,31.09
2019-04-07T09:51:29.825Z,31.05
2019-04-07T09:52:29.429Z,31.07
2019-04-07T09:53:29.302Z,31.07
2019-04-07T09:54:29.291Z,31.01
2019-04-07T09:55:30.098Z,30.94
2019-04-07T09:56:31.383Z,30.90
2019-04-07T09:57:29.267Z,30.88
2019-04-07T09:58:29.708Z,30.86
2019-04-07T09:59:29.701Z,30.86
2019-04-07T10:00:29.961Z,30.89
2019-04-07T10:01:29.781Z,30.88
2019-04-07T10:02:32.033Z,30.88
2019-04-07T10:03:30.205Z,30.90
2019-04-07T10:04:29.197Z,30.93
2019-04-07T10:05:30.874Z,30.98
2019-04-07T10:06:29.176Z,31.05
2019-04-07T10:07:29.507Z,31.14
2019-04-07T10:08:29.143Z,31.16
2019-04-07T10:09:29.278Z,31.11
2019-04-07T10:10:30.289Z,31.08
2019-04-07T10:11:29.553Z,31.05
2019-04-07T10:12:30.117Z,31.06
2019-04-07T10:13:29.664Z,31.09
2019-04-07T10:14:29.595Z,31.19
2019-04-07T10:15:29.664Z,31.28
2019-04-07T10:16:31.836Z,31.42
2019-04-07T10:17:29.042Z,31.61
2019-04-07T10:18:29.940Z,31.80
2019-04-07T10:19:29.952Z,31.97
2019-04-07T10:20:29.014Z,32.15
2019-04-07T10:21:29.012Z,32.33
2019-04-07T10:22:29.935Z,32.52
2019-04-07T10:23:28.977Z,32.76
2019-04-07T10:24:29.069Z,33.01
2019-04-07T10:25:29.312Z,33.19
2019-04-07T10:26:28.942Z,33.35
2019-04-07T10:27:29.473Z,33.44
2019-04-07T10:28:28.921Z,33.46
2019-04-07T10:29:28.992Z,33.52
2019-04-07T10:30:29.461Z,33.54
2019-04-07T10:31:29.477Z,33.57
2019-04-07T10:32:28.885Z,33.61
2019-04-07T10:33:29.365Z,33.62
2019-04-07T10:34:28.854Z,33.58
2019-04-07T10:35:29.558Z,33.50
2019-04-07T10:36:28.834Z,33.35
2019-04-07T10:37:28.828Z,33.01
2019-04-07T10:38:28.811Z,32.50
2019-04-07T10:39:28.829Z,31.77
2019-04-07T10:40:28.791Z,31.03
2019-04-07T10:41:29.471Z,30.23
2019-04-07T10:42:29.315Z,29.53
2019-04-07T10:43:28.940Z,28.96
2019-04-07T10:44:29.211Z,28.45
2019-04-07T10:45:29.620Z,28.06
2019-04-07T10:46:29.357Z,27.75
2019-04-07T10:47:29.142Z,27.48
2019-04-07T10:48:28.725Z,27.14
2019-04-07T10:49:29.521Z,26.90
2019-04-07T10:50:28.686Z,26.70
2019-04-07T10:51:29.319Z,26.53
2019-04-07T10:52:28.664Z,26.44
2019-04-07T10:53:30.935Z,26.33
2019-04-07T10:54:28.725Z,26.22
2019-04-07T10:55:28.887Z,26.05
2019-04-07T10:56:29.475Z,25.91
2019-04-07T10:57:28.990Z,25.77
2019-04-07T10:58:28.609Z,25.64
2019-04-07T10:59:29.097Z,25.51
2019-04-07T11:00:28.584Z,25.40
2019-04-07T11:01:28.569Z,25.28
2019-04-07T11:02:29.383Z,25.16
2019-04-07T11:03:28.560Z,25.04
2019-04-07T11:04:28.552Z,24.90
2019-04-07T11:05:28.520Z,24.82
2019-04-07T11:06:29.391Z,24.77
2019-04-07T11:07:29.278Z,24.71
2019-04-07T11:08:28.780Z,24.66
2019-04-07T11:09:28.487Z,24.61
2019-04-07T11:10:34.461Z,24.57
2019-04-07T11:11:30.317Z,24.51
2019-04-07T11:12:28.808Z,24.47
2019-04-07T11:13:28.906Z,24.41
2019-04-07T11:14:29.326Z,24.35
2019-04-07T11:15:28.557Z,24.33
2019-04-07T11:16:28.460Z,24.31
2019-04-07T11:17:29.173Z,24.29
2019-04-07T11:18:28.378Z,24.27
2019-04-07T11:19:28.598Z,24.26
2019-04-07T11:20:28.357Z,24.26
2019-04-07T11:21:28.357Z,24.26
2019-04-07T11:22:28.548Z,24.26
2019-04-07T11:23:28.518Z,24.29
2019-04-07T11:24:31.085Z,24.30
2019-04-07T11:25:28.468Z,24.29
2019-04-07T11:26:28.314Z,24.33
2019-04-07T11:27:29.396Z,24.33
2019-04-07T11:28:29.062Z,24.37
2019-04-07T11:29:28.355Z,24.40
2019-04-07T11:30:28.865Z,24.41
2019-04-07T11:31:28.257Z,24.39
2019-04-07T11:32:28.879Z,24.38
2019-04-07T11:33:28.984Z,24.37
2019-04-07T11:34:28.260Z,24.36
2019-04-07T11:35:29.891Z,24.39
2019-04-07T11:36:28.793Z,24.37
2019-04-07T11:37:29.149Z,24.37
2019-04-07T11:38:28.162Z,24.38
2019-04-07T11:39:29.015Z,24.38
2019-04-07T11:40:28.163Z,24.38
2019-04-07T11:41:28.819Z,24.40
2019-04-07T11:42:28.445Z,24.41
2019-04-07T11:43:28.106Z,24.41
2019-04-07T11:44:28.098Z,24.41
2019-04-07T11:45:28.918Z,24.37
2019-04-07T11:46:28.081Z,24.33
2019-04-07T11:47:28.628Z,24.32
2019-04-07T11:48:28.058Z,24.33
2019-04-07T11:49:28.039Z,24.33
2019-04-07T11:50:28.056Z,24.36
2019-04-07T11:51:28.049Z,24.45
2019-04-07T11:52:29.037Z,24.49
2019-04-07T11:53:27.997Z,24.53
2019-04-07T11:54:27.984Z,24.50
2019-04-07T11:55:29.130Z,24.52
2019-04-07T11:56:28.559Z,24.51
2019-04-07T11:57:27.964Z,24.50
2019-04-07T11:58:32.240Z,24.52
2019-04-07T11:59:28.929Z,24.54
2019-04-07T12:00:28.095Z,24.55
2019-04-07T12:01:28.175Z,24.61
2019-04-07T12:02:28.433Z,24.63
2019-04-07T12:03:28.882Z,24.63
2019-04-07T12:04:27.876Z,24.69
2019-04-07T12:05:28.522Z,24.78
2019-04-07T12:06:28.137Z,24.87
2019-04-07T12:07:27.846Z,24.97
2019-04-07T12:08:32.310Z,25.05
2019-04-07T12:09:29.252Z,25.11
2019-04-07T12:10:27.808Z,25.15
2019-04-07T12:11:27.825Z,25.18
2019-04-07T12:12:27.787Z,25.15
2019-04-07T12:13:28.627Z,25.12
2019-04-07T12:14:28.694Z,25.07
2019-04-07T12:15:29.989Z,25.08
2019-04-07T12:16:29.707Z,25.07
2019-04-07T12:17:27.732Z,24.99
2019-04-07T12:18:27.885Z,24.88
2019-04-07T12:19:27.933Z,24.75
2019-04-07T12:20:30.949Z,24.62
2019-04-07T12:21:28.698Z,24.47
2019-04-07T12:22:28.214Z,24.37
2019-04-07T12:23:28.610Z,24.30
2019-04-07T12:24:29.383Z,24.26
2019-04-07T12:25:29.357Z,24.25
2019-04-07T12:26:28.632Z,24.25
2019-04-07T12:27:27.690Z,24.20
2019-04-07T12:28:27.611Z,24.16
2019-04-07T12:29:27.602Z,24.11
2019-04-07T12:30:28.410Z,24.09
2019-04-07T12:31:27.735Z,24.07
2019-04-07T12:32:27.568Z,24.07
2019-04-07T12:33:28.509Z,24.07
2019-04-07T12:34:27.637Z,24.08
2019-04-07T12:35:27.700Z,24.06
2019-04-07T12:36:30.723Z,24.04
2019-04-07T12:37:27.512Z,24.05
2019-04-07T12:38:27.507Z,24.06
2019-04-07T12:39:27.503Z,24.05
2019-04-07T12:40:27.964Z,24.06
2019-04-07T12:41:31.027Z,24.10
2019-04-07T12:42:27.779Z,24.10
2019-04-07T12:43:27.446Z,24.14
2019-04-07T12:44:27.732Z,24.16
2019-04-07T12:45:28.380Z,24.17
2019-04-07T12:46:27.862Z,24.17
2019-04-07T12:47:27.635Z,24.17
2019-04-07T12:48:29.983Z,24.19
2019-04-07T12:49:27.381Z,24.18
2019-04-07T12:50:27.369Z,24.17
2019-04-07T12:51:27.578Z,24.14
2019-04-07T12:52:30.710Z,24.14
2019-04-07T12:53:27.336Z,24.13
2019-04-07T12:54:27.747Z,24.14